< < Back
Terminal Aerodrome Forecast


Current Version              Previous Versions:   1  2  3  4  5  6  7  8  9  

Terminal Aerodrome Forecast

650
FTUS42 KILM 010800 AAA
TAFILM
TAF AMD
KILM 010840Z 0109/0206 02004KT 6SM BR SCT003
     FM011000 00000KT 2SM BR BKN002
      TEMPO 0110/0112 1SM BR
     FM011300 01007KT P6SM SCT250
     FM012000 12006KT P6SM SCT250=

Latest METAR

721
SAUS70 KWBC 011800 RRX
MTRILM
METAR KILM 011753Z 02007KT 10SM CLR 27/17 A2997 RMK AO2 SLP149 T02720167
10278 20172 58010


USA.gov is the U.S. government's official web portal to all federal, state and local government web resources and services.